sensor_id;sensor_type;location;lat;lon;timestamp;temperature;humidity
21445;DHT22;10883;51.946;20.140;2023-05-15T00:00:04;15.30;99.90
21445;DHT22;10883;51.946;20.140;2023-05-15T00:02:31;15.30;99.90
21445;DHT22;10883;51.946;20.140;2023-05-15T00:04:59;15.30;99.90
21445;DHT22;10883;51.946;20.140;2023-05-15T00:07:25;15.30;99.90
21445;DHT22;10883;51.946;20.140;2023-05-15T00:09:50;15.20;99.90
21445;DHT22;10883;51.946;20.140;2023-05-15T00:12:16;15.20;99.90
21445;DHT22;10883;51.946;20.140;2023-05-15T00:14:42;15.30;99.90
21445;DHT22;10883;51.946;20.140;2023-05-15T00:17:08;15.20;99.90
21445;DHT22;10883;51.946;20.140;2023-05-15T00:19:34;15.20;99.90
21445;DHT22;10883;51.946;20.140;2023-05-15T00:22:00;15.10;99.90
21445;DHT22;10883;51.946;20.140;2023-05-15T00:24:26;15.10;99.90
21445;DHT22;10883;51.946;20.140;2023-05-15T00:26:51;15.00;99.90
21445;DHT22;10883;51.946;20.140;2023-05-15T00:29:17;15.10;99.90
21445;DHT22;10883;51.946;20.140;2023-05-15T00:31:43;15.00;99.90
21445;DHT22;10883;51.946;20.140;2023-05-15T00:34:09;14.90;99.90
21445;DHT22;10883;51.946;20.140;2023-05-15T00:36:34;15.00;99.90
21445;DHT22;10883;51.946;20.140;2023-05-15T00:39:00;14.90;99.90
21445;DHT22;10883;51.946;20.140;2023-05-15T00:41:26;14.90;99.90
21445;DHT22;10883;51.946;20.140;2023-05-15T00:43:54;14.90;99.90
21445;DHT22;10883;51.946;20.140;2023-05-15T00:46:21;14.90;99.90
21445;DHT22;10883;51.946;20.140;2023-05-15T00:48:49;14.90;99.90
21445;DHT22;10883;51.946;20.140;2023-05-15T00:51:16;14.80;99.90
21445;DHT22;10883;51.946;20.140;2023-05-15T00:53:42;14.80;99.90
21445;DHT22;10883;51.946;20.140;2023-05-15T00:56:08;14.80;99.90
21445;DHT22;10883;51.946;20.140;2023-05-15T00:58:36;14.70;99.90
21445;DHT22;10883;51.946;20.140;2023-05-15T01:01:02;14.70;99.90
21445;DHT22;10883;51.946;20.140;2023-05-15T01:03:28;14.70;99.90
21445;DHT22;10883;51.946;20.140;2023-05-15T01:05:54;14.70;99.90
21445;DHT22;10883;51.946;20.140;2023-05-15T01:08:27;14.70;99.90
21445;DHT22;10883;51.946;20.140;2023-05-15T01:10:57;14.60;99.90
21445;DHT22;10883;51.946;20.140;2023-05-15T01:13:23;14.60;99.90
21445;DHT22;10883;51.946;20.140;2023-05-15T01:15:49;14.60;99.90
21445;DHT22;10883;51.946;20.140;2023-05-15T01:18:15;14.60;99.90
21445;DHT22;10883;51.946;20.140;2023-05-15T01:29:20;14.50;99.90
21445;DHT22;10883;51.946;20.140;2023-05-15T01:32:01;14.40;99.90
21445;DHT22;10883;51.946;20.140;2023-05-15T01:37:43;14.40;99.90
21445;DHT22;10883;51.946;20.140;2023-05-15T01:40:12;14.30;99.90
21445;DHT22;10883;51.946;20.140;2023-05-15T01:42:45;14.30;99.90
21445;DHT22;10883;51.946;20.140;2023-05-15T01:45:12;14.30;99.90
21445;DHT22;10883;51.946;20.140;2023-05-15T01:47:42;14.30;99.90
21445;DHT22;10883;51.946;20.140;2023-05-15T01:50:11;14.30;99.90
21445;DHT22;10883;51.946;20.140;2023-05-15T01:52:50;14.30;99.90
21445;DHT22;10883;51.946;20.140;2023-05-15T01:55:17;14.30;99.90
21445;DHT22;10883;51.946;20.140;2023-05-15T01:57:47;14.20;99.90
21445;DHT22;10883;51.946;20.140;2023-05-15T02:00:14;14.20;99.90
21445;DHT22;10883;51.946;20.140;2023-05-15T02:02:42;14.20;99.90
21445;DHT22;10883;51.946;20.140;2023-05-15T02:05:08;14.20;99.90
21445;DHT22;10883;51.946;20.140;2023-05-15T02:07:35;14.20;99.90
21445;DHT22;10883;51.946;20.140;2023-05-15T02:10:02;14.20;99.90
21445;DHT22;10883;51.946;20.140;2023-05-15T02:12:28;14.20;99.90
21445;DHT22;10883;51.946;20.140;2023-05-15T02:14:56;14.20;99.90
21445;DHT22;10883;51.946;20.140;2023-05-15T02:17:22;14.20;99.90
21445;DHT22;10883;51.946;20.140;2023-05-15T02:19:49;14.20;99.90
21445;DHT22;10883;51.946;20.140;2023-05-15T02:22:15;14.20;99.90
21445;DHT22;10883;51.946;20.140;2023-05-15T02:24:41;14.20;99.90
21445;DHT22;10883;51.946;20.140;2023-05-15T02:27:16;14.20;99.90
21445;DHT22;10883;51.946;20.140;2023-05-15T02:32:19;14.20;99.90
21445;DHT22;10883;51.946;20.140;2023-05-15T02:37:34;14.20;99.90
21445;DHT22;10883;51.946;20.140;2023-05-15T02:40:02;14.20;99.90
21445;DHT22;10883;51.946;20.140;2023-05-15T02:42:32;14.20;99.90
21445;DHT22;10883;51.946;20.140;2023-05-15T02:44:59;14.20;99.90
21445;DHT22;10883;51.946;20.140;2023-05-15T02:47:26;14.20;99.90
21445;DHT22;10883;51.946;20.140;2023-05-15T02:49:53;14.20;99.90
21445;DHT22;10883;51.946;20.140;2023-05-15T02:52:21;14.20;99.90
21445;DHT22;10883;51.946;20.140;2023-05-15T02:54:47;14.20;99.90
21445;DHT22;10883;51.946;20.140;2023-05-15T02:57:13;14.00;99.90
21445;DHT22;10883;51.946;20.140;2023-05-15T02:59:38;14.00;99.90
21445;DHT22;10883;51.946;20.140;2023-05-15T03:02:04;13.90;99.90
21445;DHT22;10883;51.946;20.140;2023-05-15T03:04:30;13.90;99.90
21445;DHT22;10883;51.946;20.140;2023-05-15T03:06:56;13.90;99.90
21445;DHT22;10883;51.946;20.140;2023-05-15T03:09:21;13.90;99.90
21445;DHT22;10883;51.946;20.140;2023-05-15T03:11:47;13.90;99.90
21445;DHT22;10883;51.946;20.140;2023-05-15T03:14:13;13.80;99.90
21445;DHT22;10883;51.946;20.140;2023-05-15T03:16:39;13.80;99.90
21445;DHT22;10883;51.946;20.140;2023-05-15T03:19:05;13.80;99.90
21445;DHT22;10883;51.946;20.140;2023-05-15T03:21:30;13.80;99.90
21445;DHT22;10883;51.946;20.140;2023-05-15T03:23:56;13.80;99.90
21445;DHT22;10883;51.946;20.140;2023-05-15T03:26:22;13.70;99.90
21445;DHT22;10883;51.946;20.140;2023-05-15T03:28:48;13.70;99.90
21445;DHT22;10883;51.946;20.140;2023-05-15T03:31:14;13.70;99.90
21445;DHT22;10883;51.946;20.140;2023-05-15T03:33:40;13.70;99.90
21445;DHT22;10883;51.946;20.140;2023-05-15T03:36:06;13.70;99.90
21445;DHT22;10883;51.946;20.140;2023-05-15T03:38:32;13.70;99.90
21445;DHT22;10883;51.946;20.140;2023-05-15T03:40:58;13.70;99.90
21445;DHT22;10883;51.946;20.140;2023-05-15T03:43:23;13.70;99.90
21445;DHT22;10883;51.946;20.140;2023-05-15T03:45:50;13.70;99.90
21445;DHT22;10883;51.946;20.140;2023-05-15T03:48:15;13.60;99.90
21445;DHT22;10883;51.946;20.140;2023-05-15T03:50:43;13.60;99.90
21445;DHT22;10883;51.946;20.140;2023-05-15T03:53:09;13.50;99.90
21445;DHT22;10883;51.946;20.140;2023-05-15T03:55:34;13.50;99.90
21445;DHT22;10883;51.946;20.140;2023-05-15T03:58:01;13.50;99.90
21445;DHT22;10883;51.946;20.140;2023-05-15T04:00:27;13.50;99.90
21445;DHT22;10883;51.946;20.140;2023-05-15T04:02:53;13.50;99.90
21445;DHT22;10883;51.946;20.140;2023-05-15T04:05:18;13.60;99.90
21445;DHT22;10883;51.946;20.140;2023-05-15T04:07:46;13.60;99.90
21445;DHT22;10883;51.946;20.140;2023-05-15T04:10:12;13.50;99.90
21445;DHT22;10883;51.946;20.140;2023-05-15T04:12:37;13.50;99.90
21445;DHT22;10883;51.946;20.140;2023-05-15T04:15:20;13.50;99.90
21445;DHT22;10883;51.946;20.140;2023-05-15T04:17:47;13.60;99.90
21445;DHT22;10883;51.946;20.140;2023-05-15T04:20:15;13.70;99.90
21445;DHT22;10883;51.946;20.140;2023-05-15T04:22:42;13.70;99.90
21445;DHT22;10883;51.946;20.140;2023-05-15T04:25:08;13.70;99.90
21445;DHT22;10883;51.946;20.140;2023-05-15T04:27:35;13.40;99.90
21445;DHT22;10883;51.946;20.140;2023-05-15T04:30:01;13.10;99.90
21445;DHT22;10883;51.946;20.140;2023-05-15T04:32:27;12.80;99.90
21445;DHT22;10883;51.946;20.140;2023-05-15T04:34:53;12.70;99.90
21445;DHT22;10883;51.946;20.140;2023-05-15T04:37:19;12.70;99.90
21445;DHT22;10883;51.946;20.140;2023-05-15T04:39:44;12.70;99.90
21445;DHT22;10883;51.946;20.140;2023-05-15T04:42:10;12.70;99.90
21445;DHT22;10883;51.946;20.140;2023-05-15T04:44:36;12.70;99.90
21445;DHT22;10883;51.946;20.140;2023-05-15T04:47:02;12.80;99.90
21445;DHT22;10883;51.946;20.140;2023-05-15T04:49:28;12.80;99.90
21445;DHT22;10883;51.946;20.140;2023-05-15T16:06:26;16.40;99.90
21445;DHT22;10883;51.946;20.140;2023-05-15T16:08:52;16.40;99.90
21445;DHT22;10883;51.946;20.140;2023-05-15T16:11:18;16.20;99.90
21445;DHT22;10883;51.946;20.140;2023-05-15T16:13:44;16.20;99.90
21445;DHT22;10883;51.946;20.140;2023-05-15T16:16:10;16.10;99.90
21445;DHT22;10883;51.946;20.140;2023-05-15T16:18:35;16.10;99.90
21445;DHT22;10883;51.946;20.140;2023-05-15T16:21:01;16.10;99.90
21445;DHT22;10883;51.946;20.140;2023-05-15T16:23:27;16.10;99.90
21445;DHT22;10883;51.946;20.140;2023-05-15T16:25:52;16.10;99.90
21445;DHT22;10883;51.946;20.140;2023-05-15T16:28:18;16.00;99.90
21445;DHT22;10883;51.946;20.140;2023-05-15T16:30:44;15.90;99.90
21445;DHT22;10883;51.946;20.140;2023-05-15T16:33:12;16.00;99.90
21445;DHT22;10883;51.946;20.140;2023-05-15T16:35:38;16.00;99.90
21445;DHT22;10883;51.946;20.140;2023-05-15T16:38:03;15.90;99.90
21445;DHT22;10883;51.946;20.140;2023-05-15T16:40:29;15.90;99.90
21445;DHT22;10883;51.946;20.140;2023-05-15T16:42:55;16.00;99.90
21445;DHT22;10883;51.946;20.140;2023-05-15T16:45:21;16.00;99.90
21445;DHT22;10883;51.946;20.140;2023-05-15T16:47:46;16.10;99.90
21445;DHT22;10883;51.946;20.140;2023-05-15T16:50:12;16.10;99.90
21445;DHT22;10883;51.946;20.140;2023-05-15T16:52:38;16.10;99.90
21445;DHT22;10883;51.946;20.140;2023-05-15T16:55:11;16.20;99.90
21445;DHT22;10883;51.946;20.140;2023-05-15T16:57:37;16.30;99.90
21445;DHT22;10883;51.946;20.140;2023-05-15T17:00:06;16.30;99.90
21445;DHT22;10883;51.946;20.140;2023-05-15T17:02:35;16.30;99.90
21445;DHT22;10883;51.946;20.140;2023-05-15T17:05:01;16.30;99.90
21445;DHT22;10883;51.946;20.140;2023-05-15T17:07:28;16.40;99.90
21445;DHT22;10883;51.946;20.140;2023-05-15T17:09:54;16.50;99.90
21445;DHT22;10883;51.946;20.140;2023-05-15T17:12:21;16.50;99.90
21445;DHT22;10883;51.946;20.140;2023-05-15T17:14:47;16.40;99.90
21445;DHT22;10883;51.946;20.140;2023-05-15T17:17:12;16.30;99.90
21445;DHT22;10883;51.946;20.140;2023-05-15T17:19:38;16.20;99.90
21445;DHT22;10883;51.946;20.140;2023-05-15T17:22:04;16.10;99.90
21445;DHT22;10883;51.946;20.140;2023-05-15T17:24:30;16.00;99.90
21445;DHT22;10883;51.946;20.140;2023-05-15T17:26:56;15.80;99.90
21445;DHT22;10883;51.946;20.140;2023-05-15T17:29:23;15.80;99.90
21445;DHT22;10883;51.946;20.140;2023-05-15T17:31:48;15.60;99.90
21445;DHT22;10883;51.946;20.140;2023-05-15T17:34:14;15.50;99.90
21445;DHT22;10883;51.946;20.140;2023-05-15T17:36:40;15.40;99.90
21445;DHT22;10883;51.946;20.140;2023-05-15T17:39:08;15.40;99.90
21445;DHT22;10883;51.946;20.140;2023-05-15T17:41:35;15.30;99.90
21445;DHT22;10883;51.946;20.140;2023-05-15T17:44:01;15.30;99.90
21445;DHT22;10883;51.946;20.140;2023-05-15T17:46:27;15.20;99.90
21445;DHT22;10883;51.946;20.140;2023-05-15T17:48:53;15.00;99.90
21445;DHT22;10883;51.946;20.140;2023-05-15T17:51:19;14.80;99.90
21445;DHT22;10883;51.946;20.140;2023-05-15T17:53:44;14.70;99.90
21445;DHT22;10883;51.946;20.140;2023-05-15T17:56:10;14.60;99.90
21445;DHT22;10883;51.946;20.140;2023-05-15T17:58:36;14.50;99.90
21445;DHT22;10883;51.946;20.140;2023-05-15T18:01:02;14.40;99.90
21445;DHT22;10883;51.946;20.140;2023-05-15T18:03:28;14.30;99.90
21445;DHT22;10883;51.946;20.140;2023-05-15T18:05:54;14.20;99.90
21445;DHT22;10883;51.946;20.140;2023-05-15T18:08:20;14.00;99.90
21445;DHT22;10883;51.946;20.140;2023-05-15T18:10:45;13.90;99.90
21445;DHT22;10883;51.946;20.140;2023-05-15T18:13:12;13.90;99.90
21445;DHT22;10883;51.946;20.140;2023-05-15T18:15:37;13.80;99.90
21445;DHT22;10883;51.946;20.140;2023-05-15T18:18:04;13.60;99.90
21445;DHT22;10883;51.946;20.140;2023-05-15T18:20:30;13.60;99.90
21445;DHT22;10883;51.946;20.140;2023-05-15T18:22:56;13.50;99.90
21445;DHT22;10883;51.946;20.140;2023-05-15T18:25:22;13.40;99.90
21445;DHT22;10883;51.946;20.140;2023-05-15T18:27:47;13.30;99.90
21445;DHT22;10883;51.946;20.140;2023-05-15T18:30:13;13.20;99.90
21445;DHT22;10883;51.946;20.140;2023-05-15T18:32:39;13.00;99.90
21445;DHT22;10883;51.946;20.140;2023-05-15T18:35:06;13.00;99.90
21445;DHT22;10883;51.946;20.140;2023-05-15T18:37:32;12.90;99.90
21445;DHT22;10883;51.946;20.140;2023-05-15T18:39:58;12.90;99.90
21445;DHT22;10883;51.946;20.140;2023-05-15T18:42:27;12.80;99.90
21445;DHT22;10883;51.946;20.140;2023-05-15T18:44:53;12.80;99.90
21445;DHT22;10883;51.946;20.140;2023-05-15T18:47:19;12.70;99.90
21445;DHT22;10883;51.946;20.140;2023-05-15T18:49:46;12.70;99.90
21445;DHT22;10883;51.946;20.140;2023-05-15T18:52:12;12.70;99.90
21445;DHT22;10883;51.946;20.140;2023-05-15T18:54:39;12.70;99.90
21445;DHT22;10883;51.946;20.140;2023-05-15T18:57:05;12.60;99.90
21445;DHT22;10883;51.946;20.140;2023-05-15T18:59:33;12.60;99.90
21445;DHT22;10883;51.946;20.140;2023-05-15T19:02:08;12.50;99.90
21445;DHT22;10883;51.946;20.140;2023-05-15T19:04:34;12.50;99.90
21445;DHT22;10883;51.946;20.140;2023-05-15T19:07:00;12.50;99.90
21445;DHT22;10883;51.946;20.140;2023-05-15T19:09:26;12.50;99.90
21445;DHT22;10883;51.946;20.140;2023-05-15T19:11:52;12.50;99.90
21445;DHT22;10883;51.946;20.140;2023-05-15T19:14:18;12.40;99.90
21445;DHT22;10883;51.946;20.140;2023-05-15T19:16:44;12.50;99.90
21445;DHT22;10883;51.946;20.140;2023-05-15T19:19:10;12.40;99.90
21445;DHT22;10883;51.946;20.140;2023-05-15T19:21:36;12.40;99.90
21445;DHT22;10883;51.946;20.140;2023-05-15T19:24:03;12.50;99.90
21445;DHT22;10883;51.946;20.140;2023-05-15T19:26:29;12.50;99.90
21445;DHT22;10883;51.946;20.140;2023-05-15T19:28:55;12.50;99.90
21445;DHT22;10883;51.946;20.140;2023-05-15T19:31:20;12.50;99.90
21445;DHT22;10883;51.946;20.140;2023-05-15T19:33:46;12.50;99.90
21445;DHT22;10883;51.946;20.140;2023-05-15T19:36:12;12.40;99.90
21445;DHT22;10883;51.946;20.140;2023-05-15T19:38:38;12.40;99.90
21445;DHT22;10883;51.946;20.140;2023-05-15T19:41:04;12.30;99.90
21445;DHT22;10883;51.946;20.140;2023-05-15T19:43:31;12.30;99.90
21445;DHT22;10883;51.946;20.140;2023-05-15T19:46:01;12.30;99.90
21445;DHT22;10883;51.946;20.140;2023-05-15T19:48:27;12.30;99.90
21445;DHT22;10883;51.946;20.140;2023-05-15T19:50:53;12.20;99.90
21445;DHT22;10883;51.946;20.140;2023-05-15T19:53:19;12.30;99.90
21445;DHT22;10883;51.946;20.140;2023-05-15T19:55:44;12.20;99.90
21445;DHT22;10883;51.946;20.140;2023-05-15T19:58:10;12.20;99.90
21445;DHT22;10883;51.946;20.140;2023-05-15T20:00:36;12.20;99.90
21445;DHT22;10883;51.946;20.140;2023-05-15T20:03:02;12.20;99.90
21445;DHT22;10883;51.946;20.140;2023-05-15T20:05:27;12.20;99.90
21445;DHT22;10883;51.946;20.140;2023-05-15T20:07:53;12.20;99.90
21445;DHT22;10883;51.946;20.140;2023-05-15T20:10:20;12.20;99.90
21445;DHT22;10883;51.946;20.140;2023-05-15T20:12:46;12.10;99.90
21445;DHT22;10883;51.946;20.140;2023-05-15T20:15:12;12.10;99.90
21445;DHT22;10883;51.946;20.140;2023-05-15T20:17:42;12.10;99.90
21445;DHT22;10883;51.946;20.140;2023-05-15T20:20:08;12.10;99.90
21445;DHT22;10883;51.946;20.140;2023-05-15T20:22:43;12.10;99.90
21445;DHT22;10883;51.946;20.140;2023-05-15T20:25:09;12.20;99.90
21445;DHT22;10883;51.946;20.140;2023-05-15T20:27:35;12.20;99.90
21445;DHT22;10883;51.946;20.140;2023-05-15T20:30:02;12.10;99.90
21445;DHT22;10883;51.946;20.140;2023-05-15T20:32:28;12.10;99.90
21445;DHT22;10883;51.946;20.140;2023-05-15T20:34:54;12.10;99.90
21445;DHT22;10883;51.946;20.140;2023-05-15T20:37:21;12.00;99.90
21445;DHT22;10883;51.946;20.140;2023-05-15T20:39:55;11.90;99.90
21445;DHT22;10883;51.946;20.140;2023-05-15T20:42:21;11.90;99.90
21445;DHT22;10883;51.946;20.140;2023-05-15T20:44:47;11.90;99.90
21445;DHT22;10883;51.946;20.140;2023-05-15T20:47:13;11.70;99.90
21445;DHT22;10883;51.946;20.140;2023-05-15T20:49:39;11.70;99.90
21445;DHT22;10883;51.946;20.140;2023-05-15T20:52:05;11.70;99.90
21445;DHT22;10883;51.946;20.140;2023-05-15T20:54:31;11.70;99.90
21445;DHT22;10883;51.946;20.140;2023-05-15T20:56:57;11.70;99.90
21445;DHT22;10883;51.946;20.140;2023-05-15T20:59:22;11.70;99.90
21445;DHT22;10883;51.946;20.140;2023-05-15T21:01:48;11.60;99.90
21445;DHT22;10883;51.946;20.140;2023-05-15T21:04:14;11.60;99.90
21445;DHT22;10883;51.946;20.140;2023-05-15T21:06:40;11.60;99.90
21445;DHT22;10883;51.946;20.140;2023-05-15T21:09:06;11.60;99.90
21445;DHT22;10883;51.946;20.140;2023-05-15T21:11:32;11.60;99.90
21445;DHT22;10883;51.946;20.140;2023-05-15T21:13:58;11.60;99.90
21445;DHT22;10883;51.946;20.140;2023-05-15T21:16:23;11.60;99.90
21445;DHT22;10883;51.946;20.140;2023-05-15T21:18:49;11.50;99.90
21445;DHT22;10883;51.946;20.140;2023-05-15T21:21:15;11.60;99.90
21445;DHT22;10883;51.946;20.140;2023-05-15T21:23:41;11.60;99.90
21445;DHT22;10883;51.946;20.140;2023-05-15T21:26:06;11.60;99.90
21445;DHT22;10883;51.946;20.140;2023-05-15T21:28:33;11.50;99.90
21445;DHT22;10883;51.946;20.140;2023-05-15T21:31:07;11.50;99.90
21445;DHT22;10883;51.946;20.140;2023-05-15T21:33:34;11.50;99.90
21445;DHT22;10883;51.946;20.140;2023-05-15T21:36:03;11.50;99.90
21445;DHT22;10883;51.946;20.140;2023-05-15T21:38:29;11.50;99.90
21445;DHT22;10883;51.946;20.140;2023-05-15T21:40:56;11.40;99.90
21445;DHT22;10883;51.946;20.140;2023-05-15T21:43:22;11.40;99.90
21445;DHT22;10883;51.946;20.140;2023-05-15T21:45:47;11.40;99.90
21445;DHT22;10883;51.946;20.140;2023-05-15T21:48:13;11.40;99.90
21445;DHT22;10883;51.946;20.140;2023-05-15T21:50:39;11.30;99.90
21445;DHT22;10883;51.946;20.140;2023-05-15T21:53:05;11.30;99.90
21445;DHT22;10883;51.946;20.140;2023-05-15T21:55:31;11.30;99.90
21445;DHT22;10883;51.946;20.140;2023-05-15T21:57:57;11.20;99.90
21445;DHT22;10883;51.946;20.140;2023-05-15T22:00:22;11.20;99.90
21445;DHT22;10883;51.946;20.140;2023-05-15T22:02:51;11.20;99.90
21445;DHT22;10883;51.946;20.140;2023-05-15T22:05:17;11.20;99.90
21445;DHT22;10883;51.946;20.140;2023-05-15T22:07:43;11.20;99.90
21445;DHT22;10883;51.946;20.140;2023-05-15T22:10:09;11.20;99.90
21445;DHT22;10883;51.946;20.140;2023-05-15T22:12:41;11.10;99.90
21445;DHT22;10883;51.946;20.140;2023-05-15T22:15:07;11.10;99.90
21445;DHT22;10883;51.946;20.140;2023-05-15T22:17:33;11.10;99.90
21445;DHT22;10883;51.946;20.140;2023-05-15T22:20:01;11.10;99.90
21445;DHT22;10883;51.946;20.140;2023-05-15T22:22:39;11.10;99.90
21445;DHT22;10883;51.946;20.140;2023-05-15T22:25:06;11.10;99.90
21445;DHT22;10883;51.946;20.140;2023-05-15T22:27:32;11.00;99.90
21445;DHT22;10883;51.946;20.140;2023-05-15T22:29:58;11.00;99.90
21445;DHT22;10883;51.946;20.140;2023-05-15T22:32:24;11.00;99.90
21445;DHT22;10883;51.946;20.140;2023-05-15T22:34:50;11.00;99.90
21445;DHT22;10883;51.946;20.140;2023-05-15T22:37:16;11.00;99.90
21445;DHT22;10883;51.946;20.140;2023-05-15T22:39:42;10.90;99.90
21445;DHT22;10883;51.946;20.140;2023-05-15T22:42:08;10.80;99.90
21445;DHT22;10883;51.946;20.140;2023-05-15T22:44:34;10.80;99.90
21445;DHT22;10883;51.946;20.140;2023-05-15T22:47:00;10.80;99.90
21445;DHT22;10883;51.946;20.140;2023-05-15T22:49:26;10.90;99.90
21445;DHT22;10883;51.946;20.140;2023-05-15T22:51:53;11.00;99.90
21445;DHT22;10883;51.946;20.140;2023-05-15T22:54:19;10.90;99.90
21445;DHT22;10883;51.946;20.140;2023-05-15T22:56:52;11.00;99.90
21445;DHT22;10883;51.946;20.140;2023-05-15T22:59:19;11.00;99.90
21445;DHT22;10883;51.946;20.140;2023-05-15T23:01:46;11.00;99.90
21445;DHT22;10883;51.946;20.140;2023-05-15T23:04:12;11.00;99.90
21445;DHT22;10883;51.946;20.140;2023-05-15T23:06:38;11.20;99.90
21445;DHT22;10883;51.946;20.140;2023-05-15T23:09:07;11.20;99.90
21445;DHT22;10883;51.946;20.140;2023-05-15T23:11:33;11.40;99.90
21445;DHT22;10883;51.946;20.140;2023-05-15T23:13:59;11.50;99.90
21445;DHT22;10883;51.946;20.140;2023-05-15T23:16:25;11.60;99.90
21445;DHT22;10883;51.946;20.140;2023-05-15T23:18:51;11.60;99.90
21445;DHT22;10883;51.946;20.140;2023-05-15T23:21:20;11.60;99.90
21445;DHT22;10883;51.946;20.140;2023-05-15T23:23:46;11.70;99.90
21445;DHT22;10883;51.946;20.140;2023-05-15T23:26:12;11.60;99.90
21445;DHT22;10883;51.946;20.140;2023-05-15T23:28:39;11.70;99.90
21445;DHT22;10883;51.946;20.140;2023-05-15T23:31:04;11.70;99.90
21445;DHT22;10883;51.946;20.140;2023-05-15T23:33:31;11.80;99.90
21445;DHT22;10883;51.946;20.140;2023-05-15T23:35:57;11.80;99.90
21445;DHT22;10883;51.946;20.140;2023-05-15T23:38:23;11.80;99.90
21445;DHT22;10883;51.946;20.140;2023-05-15T23:40:49;11.80;99.90
21445;DHT22;10883;51.946;20.140;2023-05-15T23:43:15;11.80;99.90
21445;DHT22;10883;51.946;20.140;2023-05-15T23:45:41;11.80;99.90
21445;DHT22;10883;51.946;20.140;2023-05-15T23:48:08;11.80;99.90
21445;DHT22;10883;51.946;20.140;2023-05-15T23:50:34;11.80;99.90
21445;DHT22;10883;51.946;20.140;2023-05-15T23:53:00;11.80;99.90
21445;DHT22;10883;51.946;20.140;2023-05-15T23:55:25;11.80;99.90
21445;DHT22;10883;51.946;20.140;2023-05-15T23:57:51;11.80;99.90
